Time,TemperatureF,DewpointF,PressureIn,WindDirection,WindDirectionDegrees,WindSpeedMPH,WindSpeedGustMPH,Humidity,HourlyPrecipIn,Conditions,Clouds,dailyrainin,SoftwareType,DateUTC
2013-03-18 00:00:00,20.4,11.5,30.19,NE,45,3.5,3.5,68,0.00,,---,0.00,VWS V14.01,2013-03-18 04:00:00,
2013-03-18 00:02:00,20.4,11.5,30.19,ENE,68,6.4,6.4,68,0.00,,---,0.00,VWS V14.01,2013-03-18 04:02:00,
2013-03-18 00:05:00,20.4,11.5,30.19,ENE,68,0.8,4.4,68,0.00,,---,0.00,VWS V14.01,2013-03-18 04:05:00,
2013-03-18 00:10:00,20.4,11.5,30.19,East,90,0.0,3.8,68,0.00,,---,0.00,VWS V14.01,2013-03-18 04:10:00,
2013-03-18 00:17:00,20.3,11.4,30.19,NE,45,4.6,4.6,68,0.00,,---,0.00,VWS V14.01,2013-03-18 04:17:00,
2013-03-18 00:23:00,20.1,11.2,30.19,ESE,112,3.8,3.8,68,0.00,,---,0.00,VWS V14.01,2013-03-18 04:23:00,
2013-03-18 00:28:00,20.1,11.6,30.19,SE,135,0.0,0.0,69,0.00,,---,0.00,VWS V14.01,2013-03-18 04:28:00,
2013-03-18 00:33:00,19.9,11.4,30.18,East,90,6.9,6.9,69,0.00,,---,0.00,VWS V14.01,2013-03-18 04:33:00,
2013-03-18 00:37:00,19.9,11.4,30.18,ENE,68,3.3,3.3,69,0.00,,---,0.00,VWS V14.01,2013-03-18 04:37:00,
2013-03-18 00:43:00,19.7,11.2,30.18,East,90,0.0,0.0,69,0.00,,---,0.00,VWS V14.01,2013-03-18 04:43:00,
2013-03-18 00:48:00,19.7,11.2,30.18,ENE,68,0.6,0.6,69,0.00,,---,0.00,VWS V14.01,2013-03-18 04:48:00,
2013-03-18 00:53:00,19.7,11.2,30.18,ENE,68,3.3,3.3,69,0.00,,---,0.00,VWS V14.01,2013-03-18 04:53:00,
2013-03-18 00:58:00,19.5,11.0,30.17,East,90,3.5,3.5,69,0.00,,---,0.00,VWS V14.01,2013-03-18 04:58:00,
2013-03-18 01:03:00,19.5,11.0,30.17,ENE,68,2.9,2.9,69,0.00,,---,0.00,VWS V14.01,2013-03-18 05:03:00,
2013-03-18 01:08:00,19.5,11.0,30.17,ENE,68,3.5,3.5,69,0.00,,---,0.00,VWS V14.01,2013-03-18 05:08:00,
2013-03-18 01:13:00,19.5,11.0,30.16,ENE,68,0.0,0.0,69,0.00,,---,0.00,VWS V14.01,2013-03-18 05:13:00,
2013-03-18 01:18:00,19.4,11.2,30.16,East,90,4.4,4.4,70,0.00,,---,0.00,VWS V14.01,2013-03-18 05:18:00,
2013-03-18 01:23:00,19.4,11.2,30.16,East,90,2.2,6.0,70,0.00,,---,0.00,VWS V14.01,2013-03-18 05:23:00,
2013-03-18 01:28:00,19.4,11.2,30.16,NE,45,2.9,2.9,70,0.00,,---,0.00,VWS V14.01,2013-03-18 05:28:00,
2013-03-18 01:33:00,19.4,11.2,30.15,NE,45,1.1,3.8,70,0.00,,---,0.00,VWS V14.01,2013-03-18 05:33:00,
2013-03-18 01:39:00,19.4,11.2,30.15,ENE,68,4.4,4.4,70,0.00,,---,0.00,VWS V14.01,2013-03-18 05:39:00,
2013-03-18 01:44:00,19.5,11.6,30.15,ENE,68,1.1,1.7,71,0.00,,---,0.00,VWS V14.01,2013-03-18 05:44:00,
2013-03-18 01:49:00,19.4,11.6,30.15,NE,45,4.2,4.2,71,0.00,,---,0.00,VWS V14.01,2013-03-18 05:49:00,
2013-03-18 01:54:00,19.5,11.6,30.15,NE,45,6.4,6.4,71,0.00,,---,0.00,VWS V14.01,2013-03-18 05:54:00,
2013-03-18 01:59:00,19.5,11.6,30.15,NE,45,6.0,6.0,71,0.00,,---,0.00,VWS V14.01,2013-03-18 05:59:00,
2013-03-18 02:04:00,19.5,11.6,30.14,NE,45,4.2,4.2,71,0.00,,---,0.00,VWS V14.01,2013-03-18 06:04:00,
2013-03-18 02:09:00,19.5,11.6,30.14,ENE,68,0.0,0.0,71,0.00,,---,0.00,VWS V14.01,2013-03-18 06:09:00,
2013-03-18 02:14:00,19.5,11.6,30.14,ENE,68,3.1,6.9,71,0.00,,---,0.00,VWS V14.01,2013-03-18 06:14:00,
2013-03-18 02:19:00,19.5,11.6,30.14,ENE,68,3.8,3.8,71,0.00,,---,0.00,VWS V14.01,2013-03-18 06:19:00,
2013-03-18 02:24:00,19.5,11.6,30.14,NE,45,1.7,1.7,71,0.00,,---,0.00,VWS V14.01,2013-03-18 06:24:00,
2013-03-18 02:29:00,19.5,11.6,30.14,NE,45,0.0,0.0,71,0.00,,---,0.00,VWS V14.01,2013-03-18 06:29:00,
2013-03-18 02:34:00,19.5,12.0,30.14,ENE,68,0.0,0.0,72,0.00,,---,0.00,VWS V14.01,2013-03-18 06:34:00,
2013-03-18 02:39:00,19.5,12.0,30.14,NE,45,1.7,1.7,72,0.00,,---,0.00,VWS V14.01,2013-03-18 06:39:00,
2013-03-18 02:44:00,19.5,12.0,30.14,NE,45,0.0,0.0,72,0.00,,---,0.00,VWS V14.01,2013-03-18 06:44:00,
2013-03-18 02:49:00,19.5,12.0,30.13,ESE,112,1.1,1.1,72,0.00,,---,0.00,VWS V14.01,2013-03-18 06:49:00,
2013-03-18 02:54:00,19.5,12.0,30.13,NE,45,6.4,6.4,72,0.00,,---,0.00,VWS V14.01,2013-03-18 06:54:00,
2013-03-18 02:59:00,19.5,12.0,30.13,SSE,158,5.3,5.3,72,0.00,,---,0.00,VWS V14.01,2013-03-18 06:59:00,
2013-03-18 03:04:00,19.5,12.0,30.13,East,90,2.4,2.4,72,0.00,,---,0.00,VWS V14.01,2013-03-18 07:04:00,
2013-03-18 03:09:00,19.5,12.0,30.13,ENE,68,0.0,0.0,72,0.00,,---,0.00,VWS V14.01,2013-03-18 07:09:00,
2013-03-18 03:14:00,19.5,12.0,30.13,NE,45,3.3,3.3,72,0.00,,---,0.00,VWS V14.01,2013-03-18 07:14:00,
2013-03-18 03:19:00,19.5,12.3,30.12,ENE,68,5.8,5.8,73,0.00,,---,0.00,VWS V14.01,2013-03-18 07:19:00,
2013-03-18 03:24:00,19.7,12.5,30.12,ENE,68,0.0,0.0,73,0.00,,---,0.00,VWS V14.01,2013-03-18 07:24:00,
2013-03-18 03:29:00,19.5,12.3,30.12,East,90,3.5,4.6,73,0.00,,---,0.00,VWS V14.01,2013-03-18 07:29:00,
2013-03-18 03:34:00,19.7,12.5,30.11,ENE,68,4.2,4.2,73,0.00,,---,0.00,VWS V14.01,2013-03-18 07:34:00,
2013-03-18 03:39:00,19.7,12.5,30.11,ENE,68,4.4,4.4,73,0.00,,---,0.00,VWS V14.01,2013-03-18 07:39:00,
2013-03-18 03:44:00,19.9,12.7,30.11,NE,45,0.0,2.6,73,0.00,,---,0.00,VWS V14.01,2013-03-18 07:44:00,
2013-03-18 03:49:00,19.9,12.7,30.10,NE,45,0.0,0.0,73,0.00,,---,0.00,VWS V14.01,2013-03-18 07:49:00,
2013-03-18 03:54:00,19.9,12.7,30.10,ENE,68,0.0,0.0,73,0.00,,---,0.00,VWS V14.01,2013-03-18 07:54:00,
2013-03-18 03:59:00,19.9,12.7,30.10,ENE,68,0.0,0.0,73,0.00,,---,0.00,VWS V14.01,2013-03-18 07:59:00,
2013-03-18 04:04:00,19.9,12.7,30.09,NE,45,0.0,0.0,73,0.00,,---,0.00,VWS V14.01,2013-03-18 08:04:00,
2013-03-18 04:09:00,19.9,12.7,30.08,ENE,68,1.7,1.7,73,0.00,,---,0.00,VWS V14.01,2013-03-18 08:09:00,
2013-03-18 04:14:00,19.9,12.7,30.09,East,90,6.7,6.7,73,0.00,,---,0.00,VWS V14.01,2013-03-18 08:14:00,
2013-03-18 04:19:00,19.9,12.7,30.08,ENE,68,0.0,0.0,73,0.00,,---,0.00,VWS V14.01,2013-03-18 08:19:00,
2013-03-18 04:24:00,20.1,12.9,30.08,ENE,68,1.5,1.5,73,0.00,,---,0.00,VWS V14.01,2013-03-18 08:24:00,
2013-03-18 04:29:00,20.1,12.9,30.08,East,90,3.5,3.5,73,0.00,,---,0.00,VWS V14.01,2013-03-18 08:29:00,
2013-03-18 04:35:00,20.1,12.9,30.07,ENE,68,4.4,4.4,73,0.00,,---,0.00,VWS V14.01,2013-03-18 08:35:00,
2013-03-18 04:40:00,20.1,12.9,30.07,SSE,158,3.3,3.3,73,0.00,,---,0.00,VWS V14.01,2013-03-18 08:40:00,
2013-03-18 04:46:00,20.1,13.2,30.07,ESE,112,0.0,6.7,74,0.00,,---,0.00,VWS V14.01,2013-03-18 08:46:00,
2013-03-18 04:52:00,20.1,13.2,30.07,ENE,68,2.2,4.2,74,0.00,,---,0.00,VWS V14.01,2013-03-18 08:52:00,
2013-03-18 04:58:00,20.3,13.4,30.06,SW,225,2.4,2.4,74,0.00,,---,0.00,VWS V14.01,2013-03-18 08:58:00,
2013-03-18 05:03:00,20.4,13.4,30.06,ENE,68,2.6,4.9,74,0.00,,---,0.00,VWS V14.01,2013-03-18 09:03:00,
2013-03-18 05:08:00,20.4,13.4,30.06,SSE,158,3.1,3.1,74,0.00,,---,0.00,VWS V14.01,2013-03-18 09:08:00,
2013-03-18 05:13:00,20.4,13.4,30.06,NE,45,8.0,8.0,74,0.00,,---,0.00,VWS V14.01,2013-03-18 09:13:00,
2013-03-18 05:18:00,20.6,13.6,30.06,SE,135,0.0,1.3,74,0.00,,---,0.00,VWS V14.01,2013-03-18 09:18:00,
2013-03-18 05:23:00,20.8,13.8,30.06,North,0,2.4,2.4,74,0.00,,---,0.00,VWS V14.01,2013-03-18 09:23:00,
2013-03-18 05:28:00,20.8,13.8,30.05,NE,45,5.1,5.1,74,0.00,,---,0.00,VWS V14.01,2013-03-18 09:28:00,
2013-03-18 05:33:00,20.8,13.8,30.05,ENE,68,0.0,1.3,74,0.00,,---,0.00,VWS V14.01,2013-03-18 09:33:00,
2013-03-18 05:38:00,20.8,13.8,30.05,ENE,68,3.1,3.1,74,0.00,,---,0.00,VWS V14.01,2013-03-18 09:38:00,
2013-03-18 05:43:00,20.8,13.8,30.05,NE,45,3.5,3.5,74,0.00,,---,0.00,VWS V14.01,2013-03-18 09:43:00,
2013-03-18 05:48:00,21.0,14.0,30.05,East,90,0.0,0.0,74,0.00,,---,0.00,VWS V14.01,2013-03-18 09:48:00,
2013-03-18 05:53:00,21.0,14.0,30.05,ENE,68,6.0,6.0,74,0.00,,---,0.00,VWS V14.01,2013-03-18 09:53:00,
2013-03-18 05:58:00,21.0,14.0,30.04,NE,45,5.5,5.5,74,0.00,,---,0.00,VWS V14.01,2013-03-18 09:58:00,
2013-03-18 06:03:00,21.2,14.2,30.04,ENE,68,0.0,1.5,74,0.00,,---,0.00,VWS V14.01,2013-03-18 10:03:00,
2013-03-18 06:09:00,21.3,14.3,30.04,East,90,4.2,4.2,74,0.00,,---,0.00,VWS V14.01,2013-03-18 10:09:00,
2013-03-18 06:14:00,21.3,14.3,30.03,NE,45,3.3,3.3,74,0.00,,---,0.00,VWS V14.01,2013-03-18 10:14:00,
2013-03-18 06:19:00,21.3,14.3,30.03,East,90,2.2,2.2,74,0.00,,---,0.00,VWS V14.01,2013-03-18 10:19:00,
2013-03-18 06:24:00,21.5,14.5,30.02,ENE,68,0.0,0.0,74,0.00,,---,0.00,VWS V14.01,2013-03-18 10:24:00,
2013-03-18 06:29:00,21.7,15.0,30.02,ENE,68,1.5,5.8,75,0.00,,---,0.00,VWS V14.01,2013-03-18 10:29:00,
2013-03-18 06:34:00,21.7,15.0,30.02,East,90,0.0,0.0,75,0.00,,---,0.00,VWS V14.01,2013-03-18 10:34:00,
2013-03-18 06:39:00,21.7,15.0,30.02,ENE,68,0.0,0.0,75,0.00,,---,0.00,VWS V14.01,2013-03-18 10:39:00,
2013-03-18 06:44:00,21.9,15.2,30.02,ENE,68,6.9,6.9,75,0.00,,---,0.00,VWS V14.01,2013-03-18 10:44:00,
2013-03-18 06:49:00,21.9,15.2,30.01,ENE,68,4.9,4.9,75,0.00,,---,0.00,VWS V14.01,2013-03-18 10:49:00,
2013-03-18 06:54:00,21.9,15.2,30.01,East,90,7.3,7.3,75,0.00,,---,0.00,VWS V14.01,2013-03-18 10:54:00,
2013-03-18 06:59:00,22.1,15.4,30.01,SSE,158,1.5,2.9,75,0.00,,---,0.00,VWS V14.01,2013-03-18 10:59:00,
2013-03-18 07:04:00,22.2,15.5,30.00,ENE,68,5.8,5.8,75,0.00,,---,0.00,VWS V14.01,2013-03-18 11:04:00,
2013-03-18 07:09:00,22.4,16.0,30.00,ENE,68,2.0,2.0,76,0.00,,---,0.00,VWS V14.01,2013-03-18 11:09:00,
2013-03-18 07:14:00,22.6,16.2,30.00,ENE,68,7.6,8.9,76,0.00,,---,0.00,VWS V14.01,2013-03-18 11:14:00,
2013-03-18 07:19:00,22.8,16.4,29.99,ESE,112,1.7,1.7,76,0.00,,---,0.00,VWS V14.01,2013-03-18 11:19:00,
2013-03-18 07:24:00,22.8,16.4,29.99,ESE,112,5.3,5.3,76,0.00,,---,0.00,VWS V14.01,2013-03-18 11:24:00,
2013-03-18 07:29:00,23.0,16.6,29.98,East,90,1.5,2.0,76,0.00,,---,0.00,VWS V14.01,2013-03-18 11:29:00,
2013-03-18 07:34:00,23.0,16.6,29.98,East,90,1.7,1.7,76,0.00,,---,0.00,VWS V14.01,2013-03-18 11:34:00,
2013-03-18 07:39:00,23.1,16.7,29.98,ENE,68,5.8,5.8,76,0.00,,---,0.00,VWS V14.01,2013-03-18 11:39:00,
2013-03-18 07:44:00,23.3,16.9,29.98,East,90,8.2,8.2,76,0.00,,---,0.00,VWS V14.01,2013-03-18 11:44:00,
2013-03-18 07:49:00,23.3,16.9,29.98,East,90,5.5,5.5,76,0.00,,---,0.00,VWS V14.01,2013-03-18 11:49:00,
2013-03-18 07:54:00,23.5,17.1,29.98,ENE,68,4.6,4.6,76,0.00,,---,0.00,VWS V14.01,2013-03-18 11:54:00,
2013-03-18 07:59:00,23.5,17.1,29.98,ENE,68,3.5,3.5,76,0.00,,---,0.00,VWS V14.01,2013-03-18 11:59:00,
2013-03-18 08:04:00,23.5,17.1,29.98,NE,45,6.2,6.2,76,0.00,,---,0.00,VWS V14.01,2013-03-18 12:04:00,
2013-03-18 08:10:00,23.7,17.0,29.98,East,90,3.1,3.1,75,0.00,,---,0.00,VWS V14.01,2013-03-18 12:10:00,
2013-03-18 08:15:00,23.7,17.0,29.98,ENE,68,2.2,2.2,75,0.00,,---,0.00,VWS V14.01,2013-03-18 12:15:00,
2013-03-18 08:20:00,23.9,17.1,29.98,NE,45,0.0,6.9,75,0.00,,---,0.00,VWS V14.01,2013-03-18 12:20:00,
2013-03-18 08:25:00,23.9,17.1,29.97,SE,135,1.3,1.3,75,0.00,,---,0.00,VWS V14.01,2013-03-18 12:25:00,
2013-03-18 08:30:00,24.0,17.2,29.97,East,90,2.2,2.2,75,0.00,,---,0.00,VWS V14.01,2013-03-18 12:30:00,
2013-03-18 08:35:00,24.0,17.2,29.97,NE,45,2.4,5.3,75,0.00,,---,0.00,VWS V14.01,2013-03-18 12:35:00,
2013-03-18 08:40:00,24.4,17.6,29.97,ENE,68,7.8,7.8,75,0.00,,---,0.00,VWS V14.01,2013-03-18 12:40:00,
2013-03-18 08:45:00,24.4,17.6,29.96,NE,45,4.9,4.9,75,0.00,,---,0.00,VWS V14.01,2013-03-18 12:45:00,
2013-03-18 08:50:00,24.4,17.3,29.96,East,90,1.1,6.0,74,0.00,,---,0.00,VWS V14.01,2013-03-18 12:50:00,
2013-03-18 08:55:00,24.6,17.5,29.95,East,90,4.6,4.6,74,0.00,,---,0.00,VWS V14.01,2013-03-18 12:55:00,
2013-03-18 09:00:00,24.6,17.5,29.94,WSW,248,0.0,0.0,74,0.00,,---,0.00,VWS V14.01,2013-03-18 13:00:00,
2013-03-18 09:05:00,24.9,17.8,29.94,ENE,68,7.1,7.1,74,0.00,,---,0.00,VWS V14.01,2013-03-18 13:05:00,
2013-03-18 09:10:00,24.9,17.8,29.93,ENE,68,6.2,6.2,74,0.00,,---,0.00,VWS V14.01,2013-03-18 13:10:00,
2013-03-18 09:15:00,25.1,18.0,29.92,ENE,68,7.1,7.1,74,0.00,,---,0.00,VWS V14.01,2013-03-18 13:15:00,
2013-03-18 09:20:00,25.5,18.4,29.92,East,90,6.7,8.2,74,0.00,,---,0.00,VWS V14.01,2013-03-18 13:20:00,
2013-03-18 09:25:00,25.5,18.4,29.92,East,90,4.6,4.6,74,0.00,,---,0.00,VWS V14.01,2013-03-18 13:25:00,
2013-03-18 09:30:00,25.8,18.7,29.91,NE,45,2.2,2.2,74,0.00,,---,0.00,VWS V14.01,2013-03-18 13:30:00,
2013-03-18 09:35:00,26.2,18.7,29.90,South,180,2.4,2.4,73,0.00,,---,0.00,VWS V14.01,2013-03-18 13:35:00,
2013-03-18 09:40:00,26.4,18.9,29.90,ENE,68,0.4,0.4,73,0.00,,---,0.00,VWS V14.01,2013-03-18 13:40:00,
2013-03-18 09:45:00,26.7,19.2,29.89,East,90,3.3,3.3,73,0.00,,---,0.00,VWS V14.01,2013-03-18 13:45:00,
2013-03-18 09:50:00,27.3,19.8,29.88,ESE,112,7.1,7.1,73,0.00,,---,0.00,VWS V14.01,2013-03-18 13:50:00,
2013-03-18 09:55:00,27.5,20.0,29.89,East,90,4.2,7.6,73,0.00,,---,0.00,VWS V14.01,2013-03-18 13:55:00,
2013-03-18 10:02:00,27.6,19.8,29.89,ENE,68,0.0,0.0,72,0.00,,---,0.00,VWS V14.01,2013-03-18 14:02:00,
2013-03-18 10:07:00,28.2,20.4,29.89,SSE,158,0.0,1.1,72,0.00,,---,0.00,VWS V14.01,2013-03-18 14:07:00,
2013-03-18 10:14:00,28.5,20.3,29.88,East,90,5.8,7.3,71,0.00,,---,0.00,VWS V14.01,2013-03-18 14:14:00,
2013-03-18 10:19:00,28.7,20.5,29.87,ENE,68,2.2,2.2,71,0.00,,---,0.00,VWS V14.01,2013-03-18 14:19:00,
2013-03-18 10:24:00,29.1,20.5,29.87,East,90,0.0,0.0,70,0.00,,---,0.00,VWS V14.01,2013-03-18 14:24:00,
2013-03-18 10:29:00,29.3,20.7,29.87,SE,135,2.2,3.3,70,0.00,,---,0.00,VWS V14.01,2013-03-18 14:29:00,
2013-03-18 10:34:00,29.6,21.0,29.87,ESE,112,6.4,6.4,70,0.00,,---,0.00,VWS V14.01,2013-03-18 14:34:00,
2013-03-18 10:39:00,30.0,21.4,29.87,East,90,8.5,8.5,70,0.00,,---,0.00,VWS V14.01,2013-03-18 14:39:00,
2013-03-18 10:44:00,30.7,21.8,29.87,SSE,158,1.7,4.9,69,0.00,,---,0.00,VWS V14.01,2013-03-18 14:44:00,
2013-03-18 10:49:00,31.1,22.1,29.87,SE,135,12.3,12.3,69,0.00,,---,0.00,VWS V14.01,2013-03-18 14:49:00,
2013-03-18 10:54:00,31.6,22.3,29.86,East,90,0.0,0.0,68,0.00,,---,0.00,VWS V14.01,2013-03-18 14:54:00,
2013-03-18 10:59:00,31.8,22.5,29.86,ENE,68,0.0,1.5,68,0.00,,---,0.00,VWS V14.01,2013-03-18 14:59:00,
2013-03-18 11:04:00,32.3,22.9,29.85,ENE,68,6.4,6.4,68,0.00,,---,0.00,VWS V14.01,2013-03-18 15:04:00,
2013-03-18 11:09:00,32.7,23.0,29.85,ENE,68,5.8,8.7,67,0.00,,---,0.00,VWS V14.01,2013-03-18 15:09:00,
2013-03-18 11:14:00,32.7,23.0,29.84,East,90,4.9,8.2,67,0.00,,---,0.00,VWS V14.01,2013-03-18 15:14:00,
2013-03-18 11:19:00,33.0,23.2,29.84,SSE,158,0.0,0.0,67,0.00,,---,0.00,VWS V14.01,2013-03-18 15:19:00,
2013-03-18 11:24:00,33.2,23.5,29.83,ENE,68,5.8,5.8,67,0.00,,---,0.00,VWS V14.01,2013-03-18 15:24:00,
2013-03-18 11:29:00,33.6,23.5,29.82,NE,45,5.5,5.5,66,0.00,,---,0.00,VWS V14.01,2013-03-18 15:29:00,
2013-03-18 11:34:00,33.6,23.5,29.83,South,180,6.4,6.4,66,0.00,,---,0.00,VWS V14.01,2013-03-18 15:34:00,
2013-03-18 11:39:00,33.6,23.5,29.83,NE,45,5.1,5.1,66,0.00,,---,0.00,VWS V14.01,2013-03-18 15:39:00,
2013-03-18 11:44:00,33.6,23.5,29.82,ENE,68,6.9,6.9,66,0.00,,---,0.00,VWS V14.01,2013-03-18 15:44:00,
2013-03-18 11:49:00,33.6,23.1,29.81,ENE,68,8.2,8.2,65,0.00,,---,0.00,VWS V14.01,2013-03-18 15:49:00,
2013-03-18 11:54:00,33.6,23.1,29.80,East,90,7.6,7.6,65,0.00,,---,0.00,VWS V14.01,2013-03-18 15:54:00,
2013-03-18 11:59:00,33.2,22.7,29.80,SW,225,2.6,4.6,65,0.00,,---,0.00,VWS V14.01,2013-03-18 15:59:00,
2013-03-18 12:04:00,33.4,23.3,29.78,East,90,3.1,3.1,66,0.00,,---,0.00,VWS V14.01,2013-03-18 16:04:00,
2013-03-18 12:09:00,33.6,23.5,29.77,ENE,68,7.6,7.6,66,0.00,,---,0.00,VWS V14.01,2013-03-18 16:09:00,
2013-03-18 12:14:00,33.9,23.8,29.77,SSW,202,0.0,5.8,66,0.00,,---,0.00,VWS V14.01,2013-03-18 16:14:00,
2013-03-18 12:19:00,33.9,23.8,29.77,East,90,6.0,6.0,66,0.00,,---,0.00,VWS V14.01,2013-03-18 16:19:00,
2013-03-18 12:24:00,34.1,24.0,29.77,SW,225,0.0,6.2,66,0.00,,---,0.00,VWS V14.01,2013-03-18 16:24:00,
2013-03-18 12:29:00,34.3,24.1,29.77,SSE,158,0.0,9.3,66,0.00,,---,0.00,VWS V14.01,2013-03-18 16:29:00,
2013-03-18 12:34:00,34.3,24.1,29.77,SE,135,6.4,6.4,66,0.00,,---,0.00,VWS V14.01,2013-03-18 16:34:00,
2013-03-18 12:39:00,34.3,24.1,29.77,East,90,7.6,7.6,66,0.00,,---,0.00,VWS V14.01,2013-03-18 16:39:00,
2013-03-18 12:45:00,34.3,24.1,29.77,ENE,68,6.2,6.2,66,0.00,,---,0.00,VWS V14.01,2013-03-18 16:45:00,
2013-03-18 12:50:00,33.9,23.8,29.77,SE,135,4.9,4.9,66,0.00,,---,0.00,VWS V14.01,2013-03-18 16:50:00,
2013-03-18 12:55:00,33.8,23.7,29.78,SW,225,1.1,1.1,66,0.00,,---,0.00,VWS V14.01,2013-03-18 16:55:00,
2013-03-18 13:00:00,33.8,24.0,29.78,ENE,68,2.4,2.4,67,0.00,,---,0.00,VWS V14.01,2013-03-18 17:00:00,
2013-03-18 13:05:00,33.6,23.8,29.77,South,180,2.2,2.2,67,0.00,,---,0.00,VWS V14.01,2013-03-18 17:05:00,
2013-03-18 13:10:00,33.6,23.8,29.77,ENE,68,0.0,0.0,67,0.00,,---,0.00,VWS V14.01,2013-03-18 17:10:00,
2013-03-18 13:15:00,33.6,23.8,29.76,SSE,158,0.0,0.0,67,0.00,,---,0.00,VWS V14.01,2013-03-18 17:15:00,
2013-03-18 13:20:00,33.6,24.2,29.76,East,90,4.4,4.4,68,0.00,,---,0.00,VWS V14.01,2013-03-18 17:20:00,
2013-03-18 13:26:00,33.2,24.1,29.76,ENE,68,3.1,3.5,69,0.00,,---,0.00,VWS V14.01,2013-03-18 17:26:00,
2013-03-18 13:31:00,33.0,24.0,29.75,ESE,112,0.0,0.0,69,0.00,,---,0.00,VWS V14.01,2013-03-18 17:31:00,
2013-03-18 13:36:00,32.9,24.2,29.74,ENE,68,3.8,3.8,70,0.00,,---,0.00,VWS V14.01,2013-03-18 17:36:00,
2013-03-18 13:41:00,32.9,24.2,29.74,East,90,6.2,6.9,70,0.00,,---,0.00,VWS V14.01,2013-03-18 17:41:00,
2013-03-18 13:46:00,33.2,24.8,29.73,East,90,5.5,5.5,71,0.00,,---,0.00,VWS V14.01,2013-03-18 17:46:00,
2013-03-18 13:52:00,33.4,25.0,29.73,SSW,202,1.5,7.1,71,0.00,,---,0.00,VWS V14.01,2013-03-18 17:52:00,
2013-03-18 13:57:00,33.6,25.2,29.72,SW,225,1.1,8.0,71,0.00,,---,0.00,VWS V14.01,2013-03-18 17:57:00,
2013-03-18 14:02:00,33.6,25.2,29.71,SSE,158,2.2,2.2,71,0.00,,---,0.00,VWS V14.01,2013-03-18 18:02:00,
2013-03-18 14:07:00,33.6,25.5,29.71,East,90,4.2,4.2,72,0.00,,---,0.00,VWS V14.01,2013-03-18 18:07:00,
2013-03-18 14:13:00,33.6,25.5,29.71,ESE,112,2.2,2.2,72,0.00,,---,0.00,VWS V14.01,2013-03-18 18:13:00,
2013-03-18 14:18:00,33.6,25.5,29.71,East,90,0.0,0.0,72,0.00,,---,0.00,VWS V14.01,2013-03-18 18:18:00,
2013-03-18 14:23:00,33.6,25.5,29.70,East,90,4.4,4.4,72,0.00,,---,0.00,VWS V14.01,2013-03-18 18:23:00,
2013-03-18 14:28:00,33.6,25.9,29.70,South,180,6.7,6.7,73,0.00,,---,0.00,VWS V14.01,2013-03-18 18:28:00,
2013-03-18 14:33:00,33.6,25.9,29.69,SE,135,2.6,2.6,73,0.00,,---,0.00,VWS V14.01,2013-03-18 18:33:00,
2013-03-18 14:38:00,33.6,25.9,29.68,ENE,68,2.0,2.0,73,0.00,,---,0.00,VWS V14.01,2013-03-18 18:38:00,
2013-03-18 14:43:00,33.6,25.9,29.68,NE,45,0.0,0.0,73,0.00,,---,0.00,VWS V14.01,2013-03-18 18:43:00,
2013-03-18 14:48:00,33.8,26.1,29.68,SE,135,6.7,6.7,73,0.00,,---,0.00,VWS V14.01,2013-03-18 18:48:00,
2013-03-18 14:53:00,33.6,25.9,29.67,East,90,0.0,0.0,73,0.00,,---,0.00,VWS V14.01,2013-03-18 18:53:00,
2013-03-18 14:58:00,33.6,26.2,29.68,SSE,158,1.7,1.7,74,0.00,,---,0.00,VWS V14.01,2013-03-18 18:58:00,
2013-03-18 15:03:00,33.6,26.2,29.68,East,90,7.8,7.8,74,0.00,,---,0.00,VWS V14.01,2013-03-18 19:03:00,
2013-03-18 15:08:00,33.4,26.0,29.66,East,90,0.0,0.0,74,0.00,,---,0.00,VWS V14.01,2013-03-18 19:08:00,
2013-03-18 15:13:00,33.4,26.3,29.65,ENE,68,6.9,6.9,75,0.00,,---,0.00,VWS V14.01,2013-03-18 19:13:00,
2013-03-18 15:18:00,33.2,26.1,29.64,East,90,0.0,0.0,75,0.00,,---,0.00,VWS V14.01,2013-03-18 19:18:00,
2013-03-18 15:23:00,33.2,26.5,29.64,SSE,158,2.0,2.0,76,0.00,,---,0.00,VWS V14.01,2013-03-18 19:23:00,
2013-03-18 15:28:00,33.0,26.3,29.64,SSE,158,0.0,0.0,76,0.00,,---,0.00,VWS V14.01,2013-03-18 19:28:00,
2013-03-18 15:33:00,32.9,26.2,29.64,ESE,112,0.0,0.0,76,0.00,,---,0.00,VWS V14.01,2013-03-18 19:33:00,
2013-03-18 15:38:00,32.7,26.0,29.63,SSW,202,0.0,0.0,76,0.00,,---,0.00,VWS V14.01,2013-03-18 19:38:00,
2013-03-18 15:43:00,32.7,26.3,29.63,ENE,68,0.0,0.0,77,0.00,,---,0.00,VWS V14.01,2013-03-18 19:43:00,
2013-03-18 15:48:00,32.7,26.3,29.63,South,180,1.7,1.7,77,0.00,,---,0.00,VWS V14.01,2013-03-18 19:48:00,
2013-03-18 15:53:00,32.5,26.1,29.62,East,90,0.0,0.0,77,0.00,,---,0.00,VWS V14.01,2013-03-18 19:53:00,
2013-03-18 15:58:00,32.5,26.4,29.62,East,90,0.0,0.0,78,0.00,,---,0.00,VWS V14.01,2013-03-18 19:58:00,
2013-03-18 16:03:00,32.5,26.4,29.62,SSE,158,0.0,0.0,78,0.00,,---,0.00,VWS V14.01,2013-03-18 20:03:00,
2013-03-18 16:08:00,32.5,26.4,29.62,East,90,0.0,0.0,78,0.00,,---,0.00,VWS V14.01,2013-03-18 20:08:00,
2013-03-18 16:13:00,32.5,26.4,29.61,ENE,68,0.0,0.0,78,0.00,,---,0.00,VWS V14.01,2013-03-18 20:13:00,
2013-03-18 16:18:00,32.5,26.7,29.61,East,90,0.0,0.0,79,0.00,,---,0.00,VWS V14.01,2013-03-18 20:18:00,
2013-03-18 16:23:00,32.5,26.7,29.60,ESE,112,1.5,1.5,79,0.00,,---,0.00,VWS V14.01,2013-03-18 20:23:00,
2013-03-18 16:28:00,32.5,26.7,29.61,ENE,68,0.0,0.0,79,0.00,,---,0.00,VWS V14.01,2013-03-18 20:28:00,
2013-03-18 16:33:00,32.7,26.9,29.61,East,90,0.0,0.0,79,0.00,,---,0.00,VWS V14.01,2013-03-18 20:33:00,
2013-03-18 16:38:00,32.7,26.9,29.62,East,90,0.0,0.0,79,0.00,,---,0.00,VWS V14.01,2013-03-18 20:38:00,
2013-03-18 16:43:00,32.7,26.9,29.62,SSE,158,0.0,0.0,79,0.00,,---,0.00,VWS V14.01,2013-03-18 20:43:00,
2013-03-18 16:48:00,32.7,26.9,29.62,ESE,112,0.0,0.0,79,0.00,,---,0.00,VWS V14.01,2013-03-18 20:48:00,
2013-03-18 16:53:00,32.7,26.9,29.60,SSE,158,0.0,0.0,79,0.00,,---,0.00,VWS V14.01,2013-03-18 20:53:00,
2013-03-18 16:58:00,32.7,26.9,29.60,SE,135,0.0,0.0,79,0.00,,---,0.00,VWS V14.01,2013-03-18 20:58:00,
2013-03-18 17:03:00,32.7,26.9,29.59,SE,135,0.0,0.0,79,0.00,,---,0.00,VWS V14.01,2013-03-18 21:03:00,
2013-03-18 17:08:00,32.7,26.9,29.59,South,180,0.0,0.0,79,0.00,,---,0.00,VWS V14.01,2013-03-18 21:08:00,
2013-03-18 17:13:00,32.7,26.9,29.58,WSW,248,0.0,0.0,79,0.00,,---,0.00,VWS V14.01,2013-03-18 21:13:00,
2013-03-18 17:18:00,32.9,27.1,29.58,ENE,68,0.0,0.0,79,0.00,,---,0.00,VWS V14.01,2013-03-18 21:18:00,
2013-03-18 17:23:00,32.7,27.2,29.58,ESE,112,0.0,0.0,80,0.00,,---,0.00,VWS V14.01,2013-03-18 21:23:00,
2013-03-18 17:28:00,32.7,27.2,29.58,East,90,0.0,0.0,80,0.00,,---,0.00,VWS V14.01,2013-03-18 21:28:00,
2013-03-18 17:33:00,32.7,27.2,29.58,SSE,158,0.0,0.4,80,0.00,,---,0.00,VWS V14.01,2013-03-18 21:33:00,
2013-03-18 17:38:00,32.7,27.2,29.58,SSE,158,0.0,0.0,80,0.00,,---,0.00,VWS V14.01,2013-03-18 21:38:00,
2013-03-18 17:43:00,32.7,27.2,29.58,East,90,0.0,0.0,80,0.00,,---,0.00,VWS V14.01,2013-03-18 21:43:00,
2013-03-18 17:48:00,32.7,27.2,29.58,East,90,0.0,0.0,80,0.00,,---,0.00,VWS V14.01,2013-03-18 21:48:00,
2013-03-18 17:53:00,32.7,27.2,29.58,SSE,158,0.0,0.0,80,0.00,,---,0.00,VWS V14.01,2013-03-18 21:53:00,
2013-03-18 17:58:00,32.7,27.2,29.56,East,90,0.0,0.0,80,0.00,,---,0.00,VWS V14.01,2013-03-18 21:58:00,
2013-03-18 18:03:00,32.7,27.2,29.57,East,90,0.0,0.0,80,0.00,,---,0.00,VWS V14.01,2013-03-18 22:03:00,
2013-03-18 18:08:00,32.7,27.2,29.56,East,90,0.0,0.0,80,0.00,,---,0.00,VWS V14.01,2013-03-18 22:08:00,
2013-03-18 18:13:00,32.9,27.4,29.56,East,90,0.0,0.0,80,0.00,,---,0.00,VWS V14.01,2013-03-18 22:13:00,
2013-03-18 18:18:00,32.9,27.4,29.56,East,90,0.0,0.0,80,0.00,,---,0.00,VWS V14.01,2013-03-18 22:18:00,
2013-03-18 18:23:00,32.9,27.4,29.57,ENE,68,0.0,0.0,80,0.00,,---,0.00,VWS V14.01,2013-03-18 22:23:00,
2013-03-18 18:28:00,32.9,27.7,29.56,ENE,68,0.0,0.0,81,0.00,,---,0.00,VWS V14.01,2013-03-18 22:28:00,
2013-03-18 18:33:00,32.9,27.7,29.56,East,90,0.0,0.0,81,0.00,,---,0.00,VWS V14.01,2013-03-18 22:33:00,
2013-03-18 18:38:00,32.9,27.7,29.56,ENE,68,0.0,0.0,81,0.00,,---,0.00,VWS V14.01,2013-03-18 22:38:00,
2013-03-18 18:43:00,32.9,27.7,29.56,East,90,0.0,0.0,81,0.00,,---,0.00,VWS V14.01,2013-03-18 22:43:00,
2013-03-18 18:48:00,33.0,27.8,29.56,East,90,0.0,0.0,81,0.00,,---,0.00,VWS V14.01,2013-03-18 22:48:00,
2013-03-18 18:53:00,33.0,27.8,29.55,East,90,0.0,0.0,81,0.00,,---,0.00,VWS V14.01,2013-03-18 22:53:00,
2013-03-18 18:58:00,32.9,27.7,29.56,East,90,0.0,0.0,81,0.00,,---,0.00,VWS V14.01,2013-03-18 22:58:00,
2013-03-18 19:03:00,32.9,27.7,29.55,East,90,0.0,0.0,81,0.00,,---,0.00,VWS V14.01,2013-03-18 23:03:00,
2013-03-18 19:08:00,33.0,27.8,29.56,East,90,0.0,0.0,81,0.00,,---,0.00,VWS V14.01,2013-03-18 23:08:00,
2013-03-18 19:13:00,32.9,27.7,29.56,East,90,0.0,0.0,81,0.00,,---,0.00,VWS V14.01,2013-03-18 23:13:00,
2013-03-18 19:18:00,32.9,27.7,29.56,East,90,0.0,0.0,81,0.00,,---,0.00,VWS V14.01,2013-03-18 23:18:00,
2013-03-18 19:23:00,32.9,27.7,29.56,East,90,0.0,0.0,81,0.00,,---,0.00,VWS V14.01,2013-03-18 23:23:00,
2013-03-18 19:28:00,32.9,27.7,29.55,East,90,0.0,0.0,81,0.00,,---,0.00,VWS V14.01,2013-03-18 23:28:00,
2013-03-18 19:33:00,32.7,27.5,29.55,East,90,0.0,0.0,81,0.00,,---,0.00,VWS V14.01,2013-03-18 23:33:00,
2013-03-18 19:38:00,32.7,27.5,29.56,East,90,0.0,0.0,81,0.00,,---,0.00,VWS V14.01,2013-03-18 23:38:00,
2013-03-18 19:43:00,32.7,27.5,29.55,East,90,0.0,0.0,81,0.00,,---,0.00,VWS V14.01,2013-03-18 23:43:00,
2013-03-18 19:49:00,32.7,27.5,29.55,East,90,0.0,0.0,81,0.00,,---,0.00,VWS V14.01,2013-03-18 23:49:00,
2013-03-18 19:54:00,32.7,27.5,29.55,East,90,0.0,0.0,81,0.00,,---,0.00,VWS V14.01,2013-03-18 23:54:00,
2013-03-18 19:59:00,32.7,27.5,29.55,East,90,0.0,0.0,81,0.00,,---,0.00,VWS V14.01,2013-03-18 23:59:00,
2013-03-18 20:04:00,32.7,27.5,29.54,East,90,0.0,0.0,81,0.00,,---,0.00,VWS V14.01,2013-03-19 00:04:00,
2013-03-18 20:10:00,32.7,27.5,29.54,East,90,0.0,0.0,81,0.00,,---,0.00,VWS V14.01,2013-03-19 00:10:00,
2013-03-18 20:15:00,32.7,27.5,29.54,East,90,0.0,0.0,81,0.00,,---,0.00,VWS V14.01,2013-03-19 00:15:00,
2013-03-18 20:20:00,32.7,27.5,29.54,East,90,0.0,0.0,81,0.00,,---,0.00,VWS V14.01,2013-03-19 00:20:00,
2013-03-18 20:25:00,32.7,27.5,29.54,East,90,0.0,0.0,81,0.00,,---,0.00,VWS V14.01,2013-03-19 00:25:00,
2013-03-18 20:30:00,32.7,27.5,29.54,East,90,0.0,0.0,81,0.00,,---,0.00,VWS V14.01,2013-03-19 00:30:00,
2013-03-18 20:35:00,32.7,27.5,29.54,East,90,0.0,0.0,81,0.00,,---,0.00,VWS V14.01,2013-03-19 00:35:00,
2013-03-18 20:41:00,32.7,27.5,29.54,East,90,0.0,0.0,81,0.00,,---,0.00,VWS V14.01,2013-03-19 00:41:00,
2013-03-18 20:47:00,32.7,27.8,29.54,East,90,0.0,0.0,82,0.00,,---,0.00,VWS V14.01,2013-03-19 00:47:00,
2013-03-18 20:52:00,32.7,27.8,29.54,East,90,0.0,0.0,82,0.00,,---,0.00,VWS V14.01,2013-03-19 00:52:00,
2013-03-18 20:58:00,32.7,27.8,29.54,East,90,0.0,0.0,82,0.00,,---,0.00,VWS V14.01,2013-03-19 00:58:00,
2013-03-18 21:03:00,32.7,27.8,29.53,East,90,0.0,0.0,82,0.00,,---,0.00,VWS V14.01,2013-03-19 01:03:00,
2013-03-18 21:08:00,32.7,27.8,29.53,East,90,0.0,0.0,82,0.00,,---,0.00,VWS V14.01,2013-03-19 01:08:00,
2013-03-18 21:13:00,32.7,27.8,29.54,East,90,0.0,0.0,82,0.00,,---,0.00,VWS V14.01,2013-03-19 01:13:00,
2013-03-18 21:18:00,32.7,27.8,29.53,East,90,0.0,0.0,82,0.00,,---,0.00,VWS V14.01,2013-03-19 01:18:00,
2013-03-18 21:23:00,32.7,27.8,29.53,East,90,0.0,0.0,82,0.00,,---,0.00,VWS V14.01,2013-03-19 01:23:00,
2013-03-18 21:28:00,32.7,27.8,29.53,East,90,0.0,0.0,82,0.00,,---,0.00,VWS V14.01,2013-03-19 01:28:00,
2013-03-18 21:33:00,32.7,27.8,29.53,East,90,0.0,0.0,82,0.00,,---,0.00,VWS V14.01,2013-03-19 01:33:00,
2013-03-18 21:38:00,32.7,27.8,29.53,East,90,0.0,0.0,82,0.00,,---,0.00,VWS V14.01,2013-03-19 01:38:00,
2013-03-18 21:43:00,32.5,27.6,29.53,East,90,0.0,0.0,82,0.00,,---,0.00,VWS V14.01,2013-03-19 01:43:00,
2013-03-18 21:48:00,32.5,27.6,29.53,East,90,0.0,0.0,82,0.00,,---,0.00,VWS V14.01,2013-03-19 01:48:00,
2013-03-18 21:53:00,32.5,27.6,29.53,East,90,0.0,0.0,82,0.00,,---,0.00,VWS V14.01,2013-03-19 01:53:00,
2013-03-18 21:59:00,32.5,27.6,29.54,East,90,0.0,0.0,82,0.00,,---,0.00,VWS V14.01,2013-03-19 01:59:00,
2013-03-18 22:04:00,32.5,27.6,29.54,East,90,0.0,0.0,82,0.00,,---,0.00,VWS V14.01,2013-03-19 02:04:00,
2013-03-18 22:09:00,32.3,27.7,29.54,East,90,0.0,0.0,83,0.00,,---,0.00,VWS V14.01,2013-03-19 02:09:00,
2013-03-18 22:14:00,32.3,27.7,29.53,East,90,0.0,0.0,83,0.00,,---,0.00,VWS V14.01,2013-03-19 02:14:00,
2013-03-18 22:19:00,32.5,28.2,29.54,East,90,0.0,0.0,84,0.00,,---,0.00,VWS V14.01,2013-03-19 02:19:00,
2013-03-18 22:24:00,32.5,28.2,29.54,East,90,0.0,1.5,84,0.00,,---,0.00,VWS V14.01,2013-03-19 02:24:00,
2013-03-18 22:29:00,32.3,28.0,29.54,East,90,1.1,1.1,84,0.00,,---,0.00,VWS V14.01,2013-03-19 02:29:00,
2013-03-18 22:34:00,32.5,28.2,29.54,East,90,0.0,0.0,84,0.00,,---,0.00,VWS V14.01,2013-03-19 02:34:00,
2013-03-18 22:39:00,32.5,28.5,29.54,East,90,5.1,5.1,85,0.00,,---,0.00,VWS V14.01,2013-03-19 02:39:00,
2013-03-18 22:44:00,32.5,28.5,29.54,East,90,3.3,3.3,85,0.00,,---,0.00,VWS V14.01,2013-03-19 02:44:00,
2013-03-18 22:49:00,32.5,28.5,29.54,East,90,0.0,0.0,85,0.00,,---,0.00,VWS V14.01,2013-03-19 02:49:00,
2013-03-18 22:54:00,32.5,28.8,29.53,East,90,0.8,0.8,86,0.00,,---,0.00,VWS V14.01,2013-03-19 02:54:00,
2013-03-18 22:59:00,32.5,28.8,29.53,SW,225,6.0,6.0,86,0.00,,---,0.00,VWS V14.01,2013-03-19 02:59:00,
2013-03-18 23:04:00,32.5,28.8,29.53,SSW,202,8.5,8.5,86,0.00,,---,0.00,VWS V14.01,2013-03-19 03:04:00,
2013-03-18 23:09:00,32.5,28.8,29.53,South,180,8.2,8.2,86,0.00,,---,0.00,VWS V14.01,2013-03-19 03:09:00,
2013-03-18 23:14:00,32.7,29.0,29.53,WSW,248,4.4,5.3,86,0.00,,---,0.00,VWS V14.01,2013-03-19 03:14:00,
2013-03-18 23:19:00,32.7,29.0,29.53,SW,225,5.1,5.1,86,0.00,,---,0.00,VWS V14.01,2013-03-19 03:19:00,
2013-03-18 23:24:00,32.7,29.0,29.53,SW,225,8.5,8.5,86,0.00,,---,0.00,VWS V14.01,2013-03-19 03:24:00,
2013-03-18 23:29:00,32.7,29.0,29.54,SSW,202,7.3,7.3,86,0.00,,---,0.00,VWS V14.01,2013-03-19 03:29:00,
2013-03-18 23:34:00,32.7,29.0,29.53,WSW,248,6.2,6.2,86,0.00,,---,0.00,VWS V14.01,2013-03-19 03:34:00,
2013-03-18 23:39:00,32.7,29.0,29.54,SSW,202,11.4,11.4,86,0.00,,---,0.00,VWS V14.01,2013-03-19 03:39:00,
2013-03-18 23:44:00,32.7,29.0,29.54,SW,225,3.3,6.4,86,0.00,,---,0.00,VWS V14.01,2013-03-19 03:44:00,
2013-03-18 23:49:00,32.7,29.0,29.54,SW,225,2.6,2.6,86,0.00,,---,0.00,VWS V14.01,2013-03-19 03:49:00,
2013-03-18 23:54:00,32.9,29.2,29.54,SW,225,9.3,9.3,86,0.00,,---,0.00,VWS V14.01,2013-03-19 03:54:00,
2013-03-18 23:59:00,32.9,29.2,29.54,SW,225,10.9,10.9,86,0.00,,---,0.00,VWS V14.01,2013-03-19 03:59:00,